sensor_id;sensor_type;location;lat;lon;timestamp;P1;durP1;ratioP1;P2;durP2;ratioP2
17079;SDS011;8655;57.106;-2.088;2024-03-22T00:01:39;4.17;;;1.93;;
17079;SDS011;8655;57.106;-2.088;2024-03-22T00:04:05;5.77;;;2.30;;
17079;SDS011;8655;57.106;-2.088;2024-03-22T00:06:31;4.63;;;2.20;;
17079;SDS011;8655;57.106;-2.088;2024-03-22T00:08:56;6.87;;;2.20;;
17079;SDS011;8655;57.106;-2.088;2024-03-22T00:11:22;4.37;;;2.00;;
17079;SDS011;8655;57.106;-2.088;2024-03-22T00:13:48;4.33;;;1.77;;
17079;SDS011;8655;57.106;-2.088;2024-03-22T00:16:13;4.73;;;2.20;;
17079;SDS011;8655;57.106;-2.088;2024-03-22T00:18:39;6.47;;;2.20;;
17079;SDS011;8655;57.106;-2.088;2024-03-22T00:21:05;3.57;;;1.77;;
17079;SDS011;8655;57.106;-2.088;2024-03-22T00:23:31;3.57;;;1.80;;
17079;SDS011;8655;57.106;-2.088;2024-03-22T00:25:57;4.70;;;2.17;;
17079;SDS011;8655;57.106;-2.088;2024-03-22T00:28:22;4.03;;;1.73;;
17079;SDS011;8655;57.106;-2.088;2024-03-22T00:30:48;6.13;;;2.27;;
17079;SDS011;8655;57.106;-2.088;2024-03-22T00:33:14;4.90;;;2.07;;
17079;SDS011;8655;57.106;-2.088;2024-03-22T00:35:39;4.10;;;1.80;;
17079;SDS011;8655;57.106;-2.088;2024-03-22T00:38:05;4.70;;;1.90;;
17079;SDS011;8655;57.106;-2.088;2024-03-22T00:40:30;4.57;;;2.30;;
17079;SDS011;8655;57.106;-2.088;2024-03-22T00:42:56;5.77;;;2.40;;
17079;SDS011;8655;57.106;-2.088;2024-03-22T00:45:22;5.70;;;1.90;;
17079;SDS011;8655;57.106;-2.088;2024-03-22T00:47:47;3.90;;;2.00;;
17079;SDS011;8655;57.106;-2.088;2024-03-22T00:50:13;5.10;;;2.07;;
17079;SDS011;8655;57.106;-2.088;2024-03-22T00:52:39;4.57;;;2.07;;
17079;SDS011;8655;57.106;-2.088;2024-03-22T00:55:04;4.32;;;2.03;;
17079;SDS011;8655;57.106;-2.088;2024-03-22T00:57:30;3.83;;;1.90;;
17079;SDS011;8655;57.106;-2.088;2024-03-22T00:59:56;4.70;;;2.00;;
17079;SDS011;8655;57.106;-2.088;2024-03-22T01:02:22;4.67;;;2.00;;
17079;SDS011;8655;57.106;-2.088;2024-03-22T01:04:48;4.30;;;1.90;;
17079;SDS011;8655;57.106;-2.088;2024-03-22T01:07:14;6.03;;;2.13;;
17079;SDS011;8655;57.106;-2.088;2024-03-22T01:09:39;3.47;;;1.80;;
17079;SDS011;8655;57.106;-2.088;2024-03-22T01:12:05;5.97;;;2.03;;
17079;SDS011;8655;57.106;-2.088;2024-03-22T01:14:31;6.23;;;2.30;;
17079;SDS011;8655;57.106;-2.088;2024-03-22T01:16:56;5.00;;;2.13;;
17079;SDS011;8655;57.106;-2.088;2024-03-22T01:19:22;4.80;;;1.87;;
17079;SDS011;8655;57.106;-2.088;2024-03-22T01:21:48;4.57;;;2.13;;
17079;SDS011;8655;57.106;-2.088;2024-03-22T01:24:14;5.53;;;2.03;;
17079;SDS011;8655;57.106;-2.088;2024-03-22T01:26:40;3.60;;;1.70;;
17079;SDS011;8655;57.106;-2.088;2024-03-22T01:29:06;3.03;;;1.40;;
17079;SDS011;8655;57.106;-2.088;2024-03-22T01:31:32;3.77;;;1.80;;
17079;SDS011;8655;57.106;-2.088;2024-03-22T01:33:58;4.10;;;2.00;;
17079;SDS011;8655;57.106;-2.088;2024-03-22T01:36:23;3.77;;;1.80;;
17079;SDS011;8655;57.106;-2.088;2024-03-22T01:38:49;4.17;;;1.90;;
17079;SDS011;8655;57.106;-2.088;2024-03-22T01:41:15;5.37;;;1.80;;
17079;SDS011;8655;57.106;-2.088;2024-03-22T01:43:40;3.83;;;1.83;;
17079;SDS011;8655;57.106;-2.088;2024-03-22T01:46:06;5.63;;;1.90;;
17079;SDS011;8655;57.106;-2.088;2024-03-22T01:48:33;4.00;;;1.80;;
17079;SDS011;8655;57.106;-2.088;2024-03-22T01:50:59;4.73;;;1.87;;
17079;SDS011;8655;57.106;-2.088;2024-03-22T01:53:26;5.60;;;1.80;;
17079;SDS011;8655;57.106;-2.088;2024-03-22T01:55:52;3.13;;;1.60;;
17079;SDS011;8655;57.106;-2.088;2024-03-22T01:58:18;3.40;;;1.88;;
17079;SDS011;8655;57.106;-2.088;2024-03-22T02:00:43;3.20;;;1.87;;
17079;SDS011;8655;57.106;-2.088;2024-03-22T02:03:09;3.67;;;1.50;;
17079;SDS011;8655;57.106;-2.088;2024-03-22T02:05:35;4.77;;;1.53;;
17079;SDS011;8655;57.106;-2.088;2024-03-22T02:08:00;3.72;;;1.80;;
17079;SDS011;8655;57.106;-2.088;2024-03-22T02:10:26;5.10;;;1.90;;
17079;SDS011;8655;57.106;-2.088;2024-03-22T02:12:52;4.30;;;1.80;;
17079;SDS011;8655;57.106;-2.088;2024-03-22T02:15:17;3.87;;;1.80;;
17079;SDS011;8655;57.106;-2.088;2024-03-22T02:17:43;4.90;;;1.90;;
17079;SDS011;8655;57.106;-2.088;2024-03-22T02:20:09;4.83;;;1.87;;
17079;SDS011;8655;57.106;-2.088;2024-03-22T02:22:37;3.53;;;1.43;;
17079;SDS011;8655;57.106;-2.088;2024-03-22T02:25:03;4.50;;;1.87;;
17079;SDS011;8655;57.106;-2.088;2024-03-22T02:27:29;3.30;;;1.90;;
17079;SDS011;8655;57.106;-2.088;2024-03-22T02:29:55;4.37;;;1.70;;
17079;SDS011;8655;57.106;-2.088;2024-03-22T02:32:21;3.53;;;1.50;;
17079;SDS011;8655;57.106;-2.088;2024-03-22T02:34:46;4.25;;;2.00;;
17079;SDS011;8655;57.106;-2.088;2024-03-22T02:37:12;4.50;;;1.70;;
17079;SDS011;8655;57.106;-2.088;2024-03-22T02:39:38;3.75;;;1.77;;
17079;SDS011;8655;57.106;-2.088;2024-03-22T02:42:04;3.23;;;1.70;;
17079;SDS011;8655;57.106;-2.088;2024-03-22T02:44:29;2.97;;;1.40;;
17079;SDS011;8655;57.106;-2.088;2024-03-22T02:46:55;3.50;;;1.37;;
17079;SDS011;8655;57.106;-2.088;2024-03-22T02:49:21;3.67;;;1.60;;
17079;SDS011;8655;57.106;-2.088;2024-03-22T02:51:46;3.07;;;1.63;;
17079;SDS011;8655;57.106;-2.088;2024-03-22T02:54:12;3.63;;;1.47;;
17079;SDS011;8655;57.106;-2.088;2024-03-22T02:56:38;4.93;;;1.80;;
17079;SDS011;8655;57.106;-2.088;2024-03-22T02:59:03;3.10;;;1.60;;
17079;SDS011;8655;57.106;-2.088;2024-03-22T03:01:29;3.40;;;1.83;;
17079;SDS011;8655;57.106;-2.088;2024-03-22T03:03:55;5.10;;;1.80;;
17079;SDS011;8655;57.106;-2.088;2024-03-22T03:06:20;2.77;;;1.63;;
17079;SDS011;8655;57.106;-2.088;2024-03-22T03:08:46;3.33;;;1.60;;
17079;SDS011;8655;57.106;-2.088;2024-03-22T03:11:12;2.53;;;1.50;;
17079;SDS011;8655;57.106;-2.088;2024-03-22T03:13:39;3.43;;;1.47;;
17079;SDS011;8655;57.106;-2.088;2024-03-22T03:16:05;2.53;;;1.40;;
17079;SDS011;8655;57.106;-2.088;2024-03-22T03:18:30;2.77;;;1.40;;
17079;SDS011;8655;57.106;-2.088;2024-03-22T03:20:56;3.05;;;1.35;;
17079;SDS011;8655;57.106;-2.088;2024-03-22T03:23:22;2.55;;;1.42;;
17079;SDS011;8655;57.106;-2.088;2024-03-22T03:25:47;4.93;;;1.70;;
17079;SDS011;8655;57.106;-2.088;2024-03-22T03:28:13;2.80;;;1.40;;
17079;SDS011;8655;57.106;-2.088;2024-03-22T03:30:39;2.97;;;1.60;;
17079;SDS011;8655;57.106;-2.088;2024-03-22T03:33:05;3.38;;;1.50;;
17079;SDS011;8655;57.106;-2.088;2024-03-22T03:35:30;2.93;;;1.47;;
17079;SDS011;8655;57.106;-2.088;2024-03-22T03:37:56;3.23;;;1.50;;
17079;SDS011;8655;57.106;-2.088;2024-03-22T03:40:22;2.63;;;1.30;;
17079;SDS011;8655;57.106;-2.088;2024-03-22T03:42:49;2.67;;;1.10;;
17079;SDS011;8655;57.106;-2.088;2024-03-22T03:45:16;2.50;;;1.30;;
17079;SDS011;8655;57.106;-2.088;2024-03-22T03:47:41;2.27;;;1.10;;
17079;SDS011;8655;57.106;-2.088;2024-03-22T03:50:07;4.10;;;1.77;;
17079;SDS011;8655;57.106;-2.088;2024-03-22T03:52:33;3.80;;;1.60;;
17079;SDS011;8655;57.106;-2.088;2024-03-22T03:54:59;2.80;;;1.40;;
17079;SDS011;8655;57.106;-2.088;2024-03-22T03:57:24;3.00;;;1.30;;
17079;SDS011;8655;57.106;-2.088;2024-03-22T03:59:51;2.57;;;1.20;;
17079;SDS011;8655;57.106;-2.088;2024-03-22T04:02:16;3.50;;;1.23;;
17079;SDS011;8655;57.106;-2.088;2024-03-22T04:04:42;2.73;;;1.50;;
17079;SDS011;8655;57.106;-2.088;2024-03-22T04:07:08;2.37;;;1.30;;
17079;SDS011;8655;57.106;-2.088;2024-03-22T04:09:34;2.10;;;1.20;;
17079;SDS011;8655;57.106;-2.088;2024-03-22T04:11:59;2.73;;;1.40;;
17079;SDS011;8655;57.106;-2.088;2024-03-22T04:14:25;1.63;;;1.10;;
17079;SDS011;8655;57.106;-2.088;2024-03-22T04:16:51;3.27;;;1.23;;
17079;SDS011;8655;57.106;-2.088;2024-03-22T04:19:19;1.67;;;1.23;;
17079;SDS011;8655;57.106;-2.088;2024-03-22T04:21:46;2.73;;;1.20;;
17079;SDS011;8655;57.106;-2.088;2024-03-22T04:24:12;2.20;;;1.20;;
17079;SDS011;8655;57.106;-2.088;2024-03-22T04:26:37;1.77;;;1.03;;
17079;SDS011;8655;57.106;-2.088;2024-03-22T04:29:03;4.07;;;1.23;;
17079;SDS011;8655;57.106;-2.088;2024-03-22T04:31:28;1.80;;;1.13;;
17079;SDS011;8655;57.106;-2.088;2024-03-22T04:33:54;2.50;;;1.13;;
17079;SDS011;8655;57.106;-2.088;2024-03-22T04:36:20;2.50;;;1.20;;
17079;SDS011;8655;57.106;-2.088;2024-03-22T04:38:46;2.30;;;1.30;;
17079;SDS011;8655;57.106;-2.088;2024-03-22T04:41:12;2.67;;;1.10;;
17079;SDS011;8655;57.106;-2.088;2024-03-22T04:43:38;1.87;;;1.03;;
17079;SDS011;8655;57.106;-2.088;2024-03-22T04:46:04;2.43;;;1.40;;
17079;SDS011;8655;57.106;-2.088;2024-03-22T04:48:30;1.77;;;1.20;;
17079;SDS011;8655;57.106;-2.088;2024-03-22T04:50:55;3.63;;;1.30;;
17079;SDS011;8655;57.106;-2.088;2024-03-22T04:53:21;2.00;;;1.10;;
17079;SDS011;8655;57.106;-2.088;2024-03-22T04:55:47;2.90;;;1.20;;
17079;SDS011;8655;57.106;-2.088;2024-03-22T04:58:14;1.80;;;1.00;;
17079;SDS011;8655;57.106;-2.088;2024-03-22T05:00:42;1.20;;;0.90;;
17079;SDS011;8655;57.106;-2.088;2024-03-22T05:03:08;2.40;;;1.17;;
17079;SDS011;8655;57.106;-2.088;2024-03-22T05:05:35;1.87;;;1.00;;
17079;SDS011;8655;57.106;-2.088;2024-03-22T05:08:01;1.30;;;0.93;;
17079;SDS011;8655;57.106;-2.088;2024-03-22T05:10:27;2.73;;;1.20;;
17079;SDS011;8655;57.106;-2.088;2024-03-22T05:12:54;3.03;;;1.07;;
17079;SDS011;8655;57.106;-2.088;2024-03-22T05:15:20;2.00;;;1.00;;
17079;SDS011;8655;57.106;-2.088;2024-03-22T05:17:46;2.10;;;1.10;;
17079;SDS011;8655;57.106;-2.088;2024-03-22T05:20:12;1.97;;;1.10;;
17079;SDS011;8655;57.106;-2.088;2024-03-22T05:22:38;1.63;;;1.07;;
17079;SDS011;8655;57.106;-2.088;2024-03-22T05:25:03;1.73;;;0.87;;
17079;SDS011;8655;57.106;-2.088;2024-03-22T05:27:32;2.50;;;1.17;;
17079;SDS011;8655;57.106;-2.088;2024-03-22T05:29:58;2.17;;;0.97;;
17079;SDS011;8655;57.106;-2.088;2024-03-22T05:32:24;2.00;;;1.17;;
17079;SDS011;8655;57.106;-2.088;2024-03-22T05:34:50;2.30;;;1.10;;
17079;SDS011;8655;57.106;-2.088;2024-03-22T05:37:17;2.03;;;1.00;;
17079;SDS011;8655;57.106;-2.088;2024-03-22T05:39:42;3.27;;;1.40;;
17079;SDS011;8655;57.106;-2.088;2024-03-22T05:42:08;1.87;;;1.17;;
17079;SDS011;8655;57.106;-2.088;2024-03-22T05:44:34;1.47;;;0.80;;
17079;SDS011;8655;57.106;-2.088;2024-03-22T05:47:00;1.83;;;1.10;;
17079;SDS011;8655;57.106;-2.088;2024-03-22T05:49:26;2.33;;;1.00;;
17079;SDS011;8655;57.106;-2.088;2024-03-22T05:51:52;1.93;;;0.90;;
17079;SDS011;8655;57.106;-2.088;2024-03-22T05:54:18;1.67;;;0.90;;
17079;SDS011;8655;57.106;-2.088;2024-03-22T05:56:45;3.53;;;1.30;;
17079;SDS011;8655;57.106;-2.088;2024-03-22T05:59:11;3.13;;;1.03;;
17079;SDS011;8655;57.106;-2.088;2024-03-22T06:01:36;1.97;;;1.03;;
17079;SDS011;8655;57.106;-2.088;2024-03-22T06:04:03;2.53;;;1.20;;
17079;SDS011;8655;57.106;-2.088;2024-03-22T06:06:31;2.17;;;1.20;;
17079;SDS011;8655;57.106;-2.088;2024-03-22T06:08:57;2.93;;;1.10;;
17079;SDS011;8655;57.106;-2.088;2024-03-22T06:11:25;2.50;;;1.20;;
17079;SDS011;8655;57.106;-2.088;2024-03-22T06:13:51;1.23;;;0.80;;
17079;SDS011;8655;57.106;-2.088;2024-03-22T06:16:16;1.30;;;1.00;;
17079;SDS011;8655;57.106;-2.088;2024-03-22T06:18:42;2.17;;;1.23;;
17079;SDS011;8655;57.106;-2.088;2024-03-22T06:21:08;1.57;;;0.83;;
17079;SDS011;8655;57.106;-2.088;2024-03-22T06:23:33;1.50;;;0.90;;
17079;SDS011;8655;57.106;-2.088;2024-03-22T06:26:00;2.27;;;0.90;;
17079;SDS011;8655;57.106;-2.088;2024-03-22T06:28:27;2.13;;;1.03;;
17079;SDS011;8655;57.106;-2.088;2024-03-22T06:30:53;2.63;;;1.07;;
17079;SDS011;8655;57.106;-2.088;2024-03-22T06:33:19;1.40;;;0.90;;
17079;SDS011;8655;57.106;-2.088;2024-03-22T06:35:45;1.17;;;0.90;;
17079;SDS011;8655;57.106;-2.088;2024-03-22T06:38:11;1.83;;;0.93;;
17079;SDS011;8655;57.106;-2.088;2024-03-22T06:40:37;2.27;;;0.93;;
17079;SDS011;8655;57.106;-2.088;2024-03-22T06:43:03;2.20;;;0.87;;
17079;SDS011;8655;57.106;-2.088;2024-03-22T06:45:29;1.80;;;0.93;;
17079;SDS011;8655;57.106;-2.088;2024-03-22T06:47:55;1.27;;;0.80;;
17079;SDS011;8655;57.106;-2.088;2024-03-22T06:50:20;1.63;;;0.80;;
17079;SDS011;8655;57.106;-2.088;2024-03-22T06:52:50;2.50;;;1.00;;
17079;SDS011;8655;57.106;-2.088;2024-03-22T06:55:16;2.23;;;1.07;;
17079;SDS011;8655;57.106;-2.088;2024-03-22T06:57:43;1.30;;;1.00;;
17079;SDS011;8655;57.106;-2.088;2024-03-22T07:00:10;2.33;;;1.10;;
17079;SDS011;8655;57.106;-2.088;2024-03-22T07:02:36;1.93;;;1.00;;
17079;SDS011;8655;57.106;-2.088;2024-03-22T07:05:02;2.03;;;1.13;;
17079;SDS011;8655;57.106;-2.088;2024-03-22T07:07:29;2.57;;;1.10;;
17079;SDS011;8655;57.106;-2.088;2024-03-22T07:09:54;1.87;;;0.90;;
17079;SDS011;8655;57.106;-2.088;2024-03-22T07:12:21;1.67;;;1.03;;
17079;SDS011;8655;57.106;-2.088;2024-03-22T07:14:47;1.57;;;1.10;;
17079;SDS011;8655;57.106;-2.088;2024-03-22T07:17:13;1.57;;;0.73;;
17079;SDS011;8655;57.106;-2.088;2024-03-22T07:19:40;1.77;;;0.90;;
17079;SDS011;8655;57.106;-2.088;2024-03-22T07:22:06;1.73;;;0.97;;
17079;SDS011;8655;57.106;-2.088;2024-03-22T07:24:32;1.97;;;0.80;;
17079;SDS011;8655;57.106;-2.088;2024-03-22T07:26:58;1.37;;;0.83;;
17079;SDS011;8655;57.106;-2.088;2024-03-22T07:29:23;2.10;;;0.90;;
17079;SDS011;8655;57.106;-2.088;2024-03-22T07:31:49;1.87;;;1.00;;
17079;SDS011;8655;57.106;-2.088;2024-03-22T07:34:15;2.37;;;1.10;;
17079;SDS011;8655;57.106;-2.088;2024-03-22T07:36:41;1.57;;;0.93;;
17079;SDS011;8655;57.106;-2.088;2024-03-22T07:39:06;1.57;;;0.90;;
17079;SDS011;8655;57.106;-2.088;2024-03-22T07:41:33;2.00;;;1.00;;
17079;SDS011;8655;57.106;-2.088;2024-03-22T07:44:02;1.77;;;1.03;;
17079;SDS011;8655;57.106;-2.088;2024-03-22T07:46:28;2.47;;;1.00;;
17079;SDS011;8655;57.106;-2.088;2024-03-22T07:48:54;1.87;;;1.07;;
17079;SDS011;8655;57.106;-2.088;2024-03-22T07:51:20;2.97;;;1.10;;
17079;SDS011;8655;57.106;-2.088;2024-03-22T07:53:45;1.97;;;1.10;;
17079;SDS011;8655;57.106;-2.088;2024-03-22T07:56:11;1.43;;;1.10;;
17079;SDS011;8655;57.106;-2.088;2024-03-22T07:58:40;2.17;;;1.07;;
17079;SDS011;8655;57.106;-2.088;2024-03-22T08:01:06;3.10;;;1.10;;
17079;SDS011;8655;57.106;-2.088;2024-03-22T08:03:31;2.83;;;1.17;;
17079;SDS011;8655;57.106;-2.088;2024-03-22T08:05:58;2.13;;;1.03;;
17079;SDS011;8655;57.106;-2.088;2024-03-22T08:08:23;2.67;;;1.30;;
17079;SDS011;8655;57.106;-2.088;2024-03-22T08:10:49;1.97;;;1.10;;
17079;SDS011;8655;57.106;-2.088;2024-03-22T08:13:15;2.03;;;1.00;;
17079;SDS011;8655;57.106;-2.088;2024-03-22T08:15:41;1.10;;;0.90;;
17079;SDS011;8655;57.106;-2.088;2024-03-22T08:18:08;2.70;;;1.07;;
17079;SDS011;8655;57.106;-2.088;2024-03-22T08:20:34;2.13;;;1.13;;
17079;SDS011;8655;57.106;-2.088;2024-03-22T08:23:00;2.83;;;1.10;;
17079;SDS011;8655;57.106;-2.088;2024-03-22T08:25:25;2.57;;;1.17;;
17079;SDS011;8655;57.106;-2.088;2024-03-22T08:27:51;2.40;;;1.20;;
17079;SDS011;8655;57.106;-2.088;2024-03-22T08:30:20;2.83;;;1.10;;
17079;SDS011;8655;57.106;-2.088;2024-03-22T08:32:46;2.00;;;1.00;;
17079;SDS011;8655;57.106;-2.088;2024-03-22T08:35:12;1.70;;;1.10;;
17079;SDS011;8655;57.106;-2.088;2024-03-22T08:37:38;3.27;;;1.37;;
17079;SDS011;8655;57.106;-2.088;2024-03-22T08:40:04;2.73;;;1.20;;
17079;SDS011;8655;57.106;-2.088;2024-03-22T08:42:30;3.20;;;1.03;;
17079;SDS011;8655;57.106;-2.088;2024-03-22T08:44:56;2.27;;;1.20;;
17079;SDS011;8655;57.106;-2.088;2024-03-22T08:47:21;1.93;;;1.17;;
17079;SDS011;8655;57.106;-2.088;2024-03-22T08:49:48;3.40;;;1.60;;
17079;SDS011;8655;57.106;-2.088;2024-03-22T08:52:14;3.57;;;1.40;;
17079;SDS011;8655;57.106;-2.088;2024-03-22T08:54:40;2.30;;;1.30;;
17079;SDS011;8655;57.106;-2.088;2024-03-22T08:57:06;2.13;;;1.00;;
17079;SDS011;8655;57.106;-2.088;2024-03-22T08:59:31;2.80;;;1.30;;
17079;SDS011;8655;57.106;-2.088;2024-03-22T09:01:57;1.97;;;1.03;;
17079;SDS011;8655;57.106;-2.088;2024-03-22T09:04:24;2.20;;;1.03;;
17079;SDS011;8655;57.106;-2.088;2024-03-22T09:06:50;2.77;;;1.23;;
17079;SDS011;8655;57.106;-2.088;2024-03-22T09:09:16;2.83;;;1.20;;
17079;SDS011;8655;57.106;-2.088;2024-03-22T09:11:42;2.13;;;1.20;;
17079;SDS011;8655;57.106;-2.088;2024-03-22T09:14:08;2.47;;;1.13;;
17079;SDS011;8655;57.106;-2.088;2024-03-22T09:16:34;2.47;;;1.10;;
17079;SDS011;8655;57.106;-2.088;2024-03-22T09:18:59;1.30;;;0.87;;
17079;SDS011;8655;57.106;-2.088;2024-03-22T09:21:25;2.90;;;1.20;;
17079;SDS011;8655;57.106;-2.088;2024-03-22T09:23:51;2.90;;;1.20;;
17079;SDS011;8655;57.106;-2.088;2024-03-22T09:26:16;2.63;;;1.27;;
17079;SDS011;8655;57.106;-2.088;2024-03-22T09:28:45;1.90;;;1.07;;
17079;SDS011;8655;57.106;-2.088;2024-03-22T09:31:11;2.43;;;1.23;;
17079;SDS011;8655;57.106;-2.088;2024-03-22T09:33:36;3.75;;;1.40;;
17079;SDS011;8655;57.106;-2.088;2024-03-22T09:36:02;3.13;;;1.10;;
17079;SDS011;8655;57.106;-2.088;2024-03-22T09:38:28;2.60;;;1.10;;
17079;SDS011;8655;57.106;-2.088;2024-03-22T09:40:54;2.60;;;1.37;;
17079;SDS011;8655;57.106;-2.088;2024-03-22T09:43:23;2.73;;;1.13;;
17079;SDS011;8655;57.106;-2.088;2024-03-22T09:45:52;2.03;;;1.10;;
17079;SDS011;8655;57.106;-2.088;2024-03-22T09:48:19;2.03;;;1.10;;
17079;SDS011;8655;57.106;-2.088;2024-03-22T09:50:47;3.50;;;1.20;;
17079;SDS011;8655;57.106;-2.088;2024-03-22T09:53:18;2.27;;;1.50;;
17079;SDS011;8655;57.106;-2.088;2024-03-22T09:55:45;2.17;;;1.30;;
17079;SDS011;8655;57.106;-2.088;2024-03-22T09:58:12;2.07;;;1.20;;
17079;SDS011;8655;57.106;-2.088;2024-03-22T10:00:38;2.87;;;1.13;;
17079;SDS011;8655;57.106;-2.088;2024-03-22T10:03:04;3.10;;;1.23;;
17079;SDS011;8655;57.106;-2.088;2024-03-22T10:05:30;2.13;;;1.03;;
17079;SDS011;8655;57.106;-2.088;2024-03-22T10:07:56;2.17;;;0.97;;
17079;SDS011;8655;57.106;-2.088;2024-03-22T10:10:22;1.67;;;1.10;;
17079;SDS011;8655;57.106;-2.088;2024-03-22T10:12:48;1.80;;;1.10;;
17079;SDS011;8655;57.106;-2.088;2024-03-22T10:15:14;2.60;;;1.10;;
17079;SDS011;8655;57.106;-2.088;2024-03-22T10:17:41;2.70;;;1.13;;
17079;SDS011;8655;57.106;-2.088;2024-03-22T10:20:07;1.00;;;0.83;;
17079;SDS011;8655;57.106;-2.088;2024-03-22T10:25:34;1.70;;;1.00;;
17079;SDS011;8655;57.106;-2.088;2024-03-22T10:27:59;2.00;;;1.20;;
17079;SDS011;8655;57.106;-2.088;2024-03-22T10:30:25;1.47;;;1.00;;
17079;SDS011;8655;57.106;-2.088;2024-03-22T10:32:52;2.07;;;1.13;;
17079;SDS011;8655;57.106;-2.088;2024-03-22T10:35:18;2.30;;;1.00;;
17079;SDS011;8655;57.106;-2.088;2024-03-22T10:37:44;1.90;;;1.03;;
17079;SDS011;8655;57.106;-2.088;2024-03-22T10:40:10;0.77;;;0.70;;
17079;SDS011;8655;57.106;-2.088;2024-03-22T10:42:39;2.40;;;1.00;;
17079;SDS011;8655;57.106;-2.088;2024-03-22T10:45:06;1.40;;;0.97;;
17079;SDS011;8655;57.106;-2.088;2024-03-22T10:47:34;1.70;;;0.93;;
17079;SDS011;8655;57.106;-2.088;2024-03-22T10:50:08;1.50;;;0.87;;
17079;SDS011;8655;57.106;-2.088;2024-03-22T10:57:56;2.93;;;1.00;;
17079;SDS011;8655;57.106;-2.088;2024-03-22T11:00:29;1.73;;;0.80;;
17079;SDS011;8655;57.106;-2.088;2024-03-22T11:02:56;1.53;;;0.93;;
17079;SDS011;8655;57.106;-2.088;2024-03-22T11:05:22;1.00;;;0.80;;
17079;SDS011;8655;57.106;-2.088;2024-03-22T11:07:47;1.93;;;1.03;;
17079;SDS011;8655;57.106;-2.088;2024-03-22T11:10:25;2.40;;;1.10;;
17079;SDS011;8655;57.106;-2.088;2024-03-22T11:13:03;2.03;;;0.80;;
17079;SDS011;8655;57.106;-2.088;2024-03-22T11:15:30;1.23;;;0.80;;
17079;SDS011;8655;57.106;-2.088;2024-03-22T11:17:56;3.00;;;1.50;;
17079;SDS011;8655;57.106;-2.088;2024-03-22T11:20:23;1.30;;;0.83;;
17079;SDS011;8655;57.106;-2.088;2024-03-22T11:22:49;1.23;;;0.80;;
17079;SDS011;8655;57.106;-2.088;2024-03-22T11:25:16;2.40;;;1.00;;
17079;SDS011;8655;57.106;-2.088;2024-03-22T11:27:42;1.70;;;0.80;;
17079;SDS011;8655;57.106;-2.088;2024-03-22T11:30:08;1.33;;;0.77;;
17079;SDS011;8655;57.106;-2.088;2024-03-22T11:32:34;3.30;;;0.97;;
17079;SDS011;8655;57.106;-2.088;2024-03-22T11:35:07;2.03;;;1.00;;
17079;SDS011;8655;57.106;-2.088;2024-03-22T11:37:39;1.83;;;0.80;;
17079;SDS011;8655;57.106;-2.088;2024-03-22T11:40:06;1.47;;;0.80;;
17079;SDS011;8655;57.106;-2.088;2024-03-22T11:42:39;1.80;;;0.97;;
17079;SDS011;8655;57.106;-2.088;2024-03-22T11:45:10;2.10;;;1.00;;
17079;SDS011;8655;57.106;-2.088;2024-03-22T11:47:38;2.70;;;1.10;;
17079;SDS011;8655;57.106;-2.088;2024-03-22T11:50:04;1.37;;;0.70;;
17079;SDS011;8655;57.106;-2.088;2024-03-22T11:52:30;1.77;;;0.90;;
17079;SDS011;8655;57.106;-2.088;2024-03-22T11:54:56;2.23;;;1.03;;
17079;SDS011;8655;57.106;-2.088;2024-03-22T11:57:22;1.00;;;0.90;;
17079;SDS011;8655;57.106;-2.088;2024-03-22T11:59:48;2.13;;;1.00;;
17079;SDS011;8655;57.106;-2.088;2024-03-22T12:02:15;2.37;;;1.10;;
17079;SDS011;8655;57.106;-2.088;2024-03-22T12:04:42;2.47;;;1.03;;
17079;SDS011;8655;57.106;-2.088;2024-03-22T12:07:14;2.30;;;0.83;;
17079;SDS011;8655;57.106;-2.088;2024-03-22T12:09:40;2.73;;;1.43;;
17079;SDS011;8655;57.106;-2.088;2024-03-22T12:12:08;1.43;;;0.90;;
17079;SDS011;8655;57.106;-2.088;2024-03-22T12:14:35;2.23;;;1.03;;
17079;SDS011;8655;57.106;-2.088;2024-03-22T12:17:01;1.67;;;0.87;;
17079;SDS011;8655;57.106;-2.088;2024-03-22T12:19:28;1.10;;;0.80;;
17079;SDS011;8655;57.106;-2.088;2024-03-22T12:21:54;1.23;;;0.80;;
17079;SDS011;8655;57.106;-2.088;2024-03-22T12:24:19;1.10;;;0.80;;
17079;SDS011;8655;57.106;-2.088;2024-03-22T12:26:45;1.83;;;1.00;;
17079;SDS011;8655;57.106;-2.088;2024-03-22T12:29:12;1.97;;;0.80;;
17079;SDS011;8655;57.106;-2.088;2024-03-22T12:31:38;2.37;;;1.03;;
17079;SDS011;8655;57.106;-2.088;2024-03-22T12:34:04;1.20;;;0.80;;
17079;SDS011;8655;57.106;-2.088;2024-03-22T12:36:30;1.63;;;0.90;;
17079;SDS011;8655;57.106;-2.088;2024-03-22T12:38:55;1.60;;;0.90;;
17079;SDS011;8655;57.106;-2.088;2024-03-22T12:41:21;1.50;;;0.90;;
17079;SDS011;8655;57.106;-2.088;2024-03-22T12:43:47;1.50;;;0.90;;
17079;SDS011;8655;57.106;-2.088;2024-03-22T12:46:12;2.53;;;1.00;;
17079;SDS011;8655;57.106;-2.088;2024-03-22T12:48:38;1.77;;;0.80;;
17079;SDS011;8655;57.106;-2.088;2024-03-22T12:51:04;1.60;;;0.70;;
17079;SDS011;8655;57.106;-2.088;2024-03-22T12:53:29;1.50;;;0.83;;
17079;SDS011;8655;57.106;-2.088;2024-03-22T12:55:55;1.63;;;0.90;;
17079;SDS011;8655;57.106;-2.088;2024-03-22T12:58:21;2.20;;;0.97;;
17079;SDS011;8655;57.106;-2.088;2024-03-22T13:00:46;0.87;;;0.67;;
17079;SDS011;8655;57.106;-2.088;2024-03-22T13:03:12;1.67;;;0.90;;
17079;SDS011;8655;57.106;-2.088;2024-03-22T13:05:40;1.20;;;0.83;;
17079;SDS011;8655;57.106;-2.088;2024-03-22T13:08:06;1.10;;;0.77;;
17079;SDS011;8655;57.106;-2.088;2024-03-22T13:10:32;1.40;;;0.90;;
17079;SDS011;8655;57.106;-2.088;2024-03-22T13:12:58;1.83;;;0.97;;
17079;SDS011;8655;57.106;-2.088;2024-03-22T13:15:23;1.37;;;0.80;;
17079;SDS011;8655;57.106;-2.088;2024-03-22T13:17:50;1.10;;;0.73;;
17079;SDS011;8655;57.106;-2.088;2024-03-22T13:20:17;0.90;;;0.77;;
17079;SDS011;8655;57.106;-2.088;2024-03-22T13:22:43;1.70;;;0.83;;
17079;SDS011;8655;57.106;-2.088;2024-03-22T13:25:09;1.13;;;0.83;;
17079;SDS011;8655;57.106;-2.088;2024-03-22T13:27:36;2.90;;;0.80;;
17079;SDS011;8655;57.106;-2.088;2024-03-22T13:30:04;1.50;;;0.90;;
17079;SDS011;8655;57.106;-2.088;2024-03-22T13:32:35;1.00;;;0.80;;
17079;SDS011;8655;57.106;-2.088;2024-03-22T13:35:04;1.47;;;0.80;;
17079;SDS011;8655;57.106;-2.088;2024-03-22T13:37:30;1.27;;;0.67;;
17079;SDS011;8655;57.106;-2.088;2024-03-22T13:39:56;2.20;;;0.90;;
17079;SDS011;8655;57.106;-2.088;2024-03-22T13:42:21;1.27;;;0.80;;
17079;SDS011;8655;57.106;-2.088;2024-03-22T13:44:47;0.80;;;0.70;;
17079;SDS011;8655;57.106;-2.088;2024-03-22T13:47:13;1.67;;;0.90;;
17079;SDS011;8655;57.106;-2.088;2024-03-22T13:49:38;1.37;;;0.80;;
17079;SDS011;8655;57.106;-2.088;2024-03-22T13:52:08;1.13;;;0.90;;
17079;SDS011;8655;57.106;-2.088;2024-03-22T13:54:34;1.33;;;0.70;;
17079;SDS011;8655;57.106;-2.088;2024-03-22T13:56:59;0.90;;;0.80;;
17079;SDS011;8655;57.106;-2.088;2024-03-22T13:59:26;1.83;;;0.90;;
17079;SDS011;8655;57.106;-2.088;2024-03-22T14:01:52;1.53;;;0.80;;
17079;SDS011;8655;57.106;-2.088;2024-03-22T14:04:17;1.80;;;0.80;;
17079;SDS011;8655;57.106;-2.088;2024-03-22T14:06:44;1.73;;;0.80;;
17079;SDS011;8655;57.106;-2.088;2024-03-22T14:09:10;1.00;;;0.70;;
17079;SDS011;8655;57.106;-2.088;2024-03-22T14:11:38;1.80;;;0.80;;
17079;SDS011;8655;57.106;-2.088;2024-03-22T14:14:04;1.57;;;1.00;;
17079;SDS011;8655;57.106;-2.088;2024-03-22T14:16:30;1.23;;;0.70;;
17079;SDS011;8655;57.106;-2.088;2024-03-22T14:18:56;1.03;;;0.67;;
17079;SDS011;8655;57.106;-2.088;2024-03-22T14:21:22;1.60;;;1.00;;
17079;SDS011;8655;57.106;-2.088;2024-03-22T14:23:48;1.27;;;0.90;;
17079;SDS011;8655;57.106;-2.088;2024-03-22T14:26:15;1.90;;;0.90;;
17079;SDS011;8655;57.106;-2.088;2024-03-22T14:28:41;1.27;;;0.80;;
17079;SDS011;8655;57.106;-2.088;2024-03-22T14:31:08;2.20;;;0.60;;
17079;SDS011;8655;57.106;-2.088;2024-03-22T14:33:34;1.50;;;0.80;;
17079;SDS011;8655;57.106;-2.088;2024-03-22T14:36:01;1.30;;;0.80;;
17079;SDS011;8655;57.106;-2.088;2024-03-22T14:38:27;1.60;;;0.70;;
17079;SDS011;8655;57.106;-2.088;2024-03-22T14:40:54;0.97;;;0.63;;
17079;SDS011;8655;57.106;-2.088;2024-03-22T14:43:22;1.23;;;0.80;;
17079;SDS011;8655;57.106;-2.088;2024-03-22T14:45:49;1.20;;;0.70;;
17079;SDS011;8655;57.106;-2.088;2024-03-22T14:48:19;0.83;;;0.60;;
17079;SDS011;8655;57.106;-2.088;2024-03-22T14:50:48;1.33;;;0.70;;